sensor_id;sensor_type;location;lat;lon;timestamp;P1;durP1;ratioP1;P2;durP2;ratioP2
23470;SDS011;11908;50.806;4.424;2024-02-16T00:00:07;3.83;;;2.03;;
23470;SDS011;11908;50.806;4.424;2024-02-16T00:02:36;4.72;;;2.35;;
23470;SDS011;11908;50.806;4.424;2024-02-16T00:05:02;4.88;;;1.88;;
23470;SDS011;11908;50.806;4.424;2024-02-16T00:07:28;6.20;;;2.60;;
23470;SDS011;11908;50.806;4.424;2024-02-16T00:09:54;4.18;;;2.38;;
23470;SDS011;11908;50.806;4.424;2024-02-16T00:12:20;5.28;;;2.33;;
23470;SDS011;11908;50.806;4.424;2024-02-16T00:14:46;4.45;;;2.08;;
23470;SDS011;11908;50.806;4.424;2024-02-16T00:17:12;6.05;;;2.20;;
23470;SDS011;11908;50.806;4.424;2024-02-16T00:19:37;7.78;;;2.75;;
23470;SDS011;11908;50.806;4.424;2024-02-16T00:22:03;7.75;;;2.00;;
23470;SDS011;11908;50.806;4.424;2024-02-16T00:24:29;3.40;;;2.17;;
23470;SDS011;11908;50.806;4.424;2024-02-16T00:26:56;8.02;;;2.60;;
23470;SDS011;11908;50.806;4.424;2024-02-16T00:29:22;4.25;;;1.92;;
23470;SDS011;11908;50.806;4.424;2024-02-16T00:31:48;3.40;;;2.08;;
23470;SDS011;11908;50.806;4.424;2024-02-16T00:34:14;3.88;;;2.30;;
23470;SDS011;11908;50.806;4.424;2024-02-16T00:36:39;3.00;;;2.08;;
23470;SDS011;11908;50.806;4.424;2024-02-16T00:39:05;5.72;;;2.58;;
23470;SDS011;11908;50.806;4.424;2024-02-16T00:41:31;3.35;;;2.22;;
23470;SDS011;11908;50.806;4.424;2024-02-16T00:43:56;3.45;;;2.10;;
23470;SDS011;11908;50.806;4.424;2024-02-16T00:46:22;5.18;;;2.03;;
23470;SDS011;11908;50.806;4.424;2024-02-16T00:48:51;5.03;;;2.00;;
23470;SDS011;11908;50.806;4.424;2024-02-16T00:51:17;3.78;;;2.40;;
23470;SDS011;11908;50.806;4.424;2024-02-16T00:53:43;4.75;;;2.25;;
23470;SDS011;11908;50.806;4.424;2024-02-16T00:56:09;3.83;;;2.22;;
23470;SDS011;11908;50.806;4.424;2024-02-16T00:58:35;5.18;;;2.03;;
23470;SDS011;11908;50.806;4.424;2024-02-16T01:01:01;3.65;;;2.35;;
23470;SDS011;11908;50.806;4.424;2024-02-16T01:03:28;7.03;;;2.50;;
23470;SDS011;11908;50.806;4.424;2024-02-16T01:05:54;4.20;;;2.35;;
23470;SDS011;11908;50.806;4.424;2024-02-16T01:08:20;5.68;;;2.30;;
23470;SDS011;11908;50.806;4.424;2024-02-16T01:10:46;5.13;;;2.30;;
23470;SDS011;11908;50.806;4.424;2024-02-16T01:13:12;6.25;;;2.50;;
23470;SDS011;11908;50.806;4.424;2024-02-16T01:15:37;5.63;;;2.78;;
23470;SDS011;11908;50.806;4.424;2024-02-16T01:18:04;3.22;;;2.20;;
23470;SDS011;11908;50.806;4.424;2024-02-16T01:20:30;5.80;;;2.45;;
23470;SDS011;11908;50.806;4.424;2024-02-16T01:22:56;4.80;;;2.25;;
23470;SDS011;11908;50.806;4.424;2024-02-16T01:25:22;5.45;;;2.83;;
23470;SDS011;11908;50.806;4.424;2024-02-16T01:27:48;5.70;;;2.10;;
23470;SDS011;11908;50.806;4.424;2024-02-16T01:30:13;5.03;;;2.50;;
23470;SDS011;11908;50.806;4.424;2024-02-16T01:32:40;6.80;;;2.65;;
23470;SDS011;11908;50.806;4.424;2024-02-16T01:35:06;5.07;;;2.70;;
23470;SDS011;11908;50.806;4.424;2024-02-16T01:37:32;4.78;;;2.55;;
23470;SDS011;11908;50.806;4.424;2024-02-16T01:39:58;4.30;;;2.55;;
23470;SDS011;11908;50.806;4.424;2024-02-16T01:42:24;4.30;;;2.45;;
23470;SDS011;11908;50.806;4.424;2024-02-16T01:44:50;2.90;;;2.40;;
23470;SDS011;11908;50.806;4.424;2024-02-16T01:47:16;4.35;;;2.60;;
23470;SDS011;11908;50.806;4.424;2024-02-16T01:49:43;5.47;;;2.95;;
23470;SDS011;11908;50.806;4.424;2024-02-16T01:52:09;3.38;;;2.45;;
23470;SDS011;11908;50.806;4.424;2024-02-16T01:54:35;4.53;;;2.20;;
23470;SDS011;11908;50.806;4.424;2024-02-16T01:57:02;3.42;;;2.75;;
23470;SDS011;11908;50.806;4.424;2024-02-16T01:59:30;6.70;;;2.53;;
23470;SDS011;11908;50.806;4.424;2024-02-16T02:01:58;3.70;;;2.53;;
23470;SDS011;11908;50.806;4.424;2024-02-16T02:04:24;3.72;;;2.40;;
23470;SDS011;11908;50.806;4.424;2024-02-16T02:06:51;9.45;;;2.58;;
23470;SDS011;11908;50.806;4.424;2024-02-16T02:09:16;6.95;;;2.65;;
23470;SDS011;11908;50.806;4.424;2024-02-16T02:11:42;6.05;;;2.67;;
23470;SDS011;11908;50.806;4.424;2024-02-16T02:14:08;7.38;;;2.58;;
23470;SDS011;11908;50.806;4.424;2024-02-16T02:16:35;10.80;;;2.70;;
23470;SDS011;11908;50.806;4.424;2024-02-16T02:19:02;3.45;;;2.28;;
23470;SDS011;11908;50.806;4.424;2024-02-16T02:21:28;7.40;;;2.53;;
23470;SDS011;11908;50.806;4.424;2024-02-16T02:23:53;5.25;;;2.20;;
23470;SDS011;11908;50.806;4.424;2024-02-16T02:26:19;6.80;;;2.58;;
23470;SDS011;11908;50.806;4.424;2024-02-16T02:28:46;3.83;;;2.35;;
23470;SDS011;11908;50.806;4.424;2024-02-16T02:31:12;7.15;;;3.22;;
23470;SDS011;11908;50.806;4.424;2024-02-16T02:33:38;8.60;;;3.20;;
23470;SDS011;11908;50.806;4.424;2024-02-16T02:36:04;2.92;;;2.00;;
23470;SDS011;11908;50.806;4.424;2024-02-16T02:38:30;4.40;;;2.28;;
23470;SDS011;11908;50.806;4.424;2024-02-16T02:40:55;5.55;;;2.10;;
23470;SDS011;11908;50.806;4.424;2024-02-16T02:43:21;4.70;;;2.80;;
23470;SDS011;11908;50.806;4.424;2024-02-16T02:45:48;4.60;;;2.63;;
23470;SDS011;11908;50.806;4.424;2024-02-16T02:48:14;5.50;;;3.03;;
23470;SDS011;11908;50.806;4.424;2024-02-16T02:50:39;6.10;;;2.75;;
23470;SDS011;11908;50.806;4.424;2024-02-16T02:53:05;6.60;;;2.42;;
23470;SDS011;11908;50.806;4.424;2024-02-16T02:55:30;2.83;;;2.30;;
23470;SDS011;11908;50.806;4.424;2024-02-16T02:57:56;4.47;;;2.60;;
23470;SDS011;11908;50.806;4.424;2024-02-16T03:00:23;4.53;;;2.60;;
23470;SDS011;11908;50.806;4.424;2024-02-16T03:02:48;4.63;;;2.78;;
23470;SDS011;11908;50.806;4.424;2024-02-16T03:05:14;5.60;;;2.50;;
23470;SDS011;11908;50.806;4.424;2024-02-16T03:07:40;7.82;;;2.72;;
23470;SDS011;11908;50.806;4.424;2024-02-16T03:10:06;4.28;;;2.67;;
23470;SDS011;11908;50.806;4.424;2024-02-16T03:12:34;5.78;;;2.90;;
23470;SDS011;11908;50.806;4.424;2024-02-16T03:15:00;5.18;;;2.80;;
23470;SDS011;11908;50.806;4.424;2024-02-16T03:17:26;6.82;;;2.70;;
23470;SDS011;11908;50.806;4.424;2024-02-16T03:19:51;4.85;;;2.60;;
23470;SDS011;11908;50.806;4.424;2024-02-16T03:22:17;6.80;;;2.83;;
23470;SDS011;11908;50.806;4.424;2024-02-16T03:24:43;5.65;;;2.72;;
23470;SDS011;11908;50.806;4.424;2024-02-16T03:27:10;5.65;;;2.92;;
23470;SDS011;11908;50.806;4.424;2024-02-16T03:29:35;6.40;;;2.70;;
23470;SDS011;11908;50.806;4.424;2024-02-16T03:32:01;6.10;;;2.58;;
23470;SDS011;11908;50.806;4.424;2024-02-16T03:34:27;7.45;;;3.00;;
23470;SDS011;11908;50.806;4.424;2024-02-16T03:36:53;7.43;;;2.45;;
23470;SDS011;11908;50.806;4.424;2024-02-16T03:39:19;6.97;;;2.83;;
23470;SDS011;11908;50.806;4.424;2024-02-16T03:41:45;6.18;;;3.17;;
23470;SDS011;11908;50.806;4.424;2024-02-16T03:44:13;5.38;;;2.75;;
23470;SDS011;11908;50.806;4.424;2024-02-16T03:46:40;7.88;;;2.90;;
23470;SDS011;11908;50.806;4.424;2024-02-16T03:49:07;5.20;;;2.60;;
23470;SDS011;11908;50.806;4.424;2024-02-16T03:51:32;6.18;;;2.78;;
23470;SDS011;11908;50.806;4.424;2024-02-16T03:53:58;7.88;;;2.50;;
23470;SDS011;11908;50.806;4.424;2024-02-16T03:56:24;6.30;;;2.63;;
23470;SDS011;11908;50.806;4.424;2024-02-16T03:58:50;7.32;;;2.67;;
23470;SDS011;11908;50.806;4.424;2024-02-16T04:01:15;7.80;;;2.72;;
23470;SDS011;11908;50.806;4.424;2024-02-16T04:03:41;4.18;;;2.75;;
23470;SDS011;11908;50.806;4.424;2024-02-16T04:06:07;7.45;;;2.92;;
23470;SDS011;11908;50.806;4.424;2024-02-16T04:08:33;4.13;;;2.30;;
23470;SDS011;11908;50.806;4.424;2024-02-16T04:10:58;5.45;;;2.90;;
23470;SDS011;11908;50.806;4.424;2024-02-16T04:13:24;7.85;;;2.63;;
23470;SDS011;11908;50.806;4.424;2024-02-16T04:15:50;8.88;;;2.75;;
23470;SDS011;11908;50.806;4.424;2024-02-16T04:18:16;6.13;;;2.38;;
23470;SDS011;11908;50.806;4.424;2024-02-16T04:20:43;6.57;;;3.80;;
23470;SDS011;11908;50.806;4.424;2024-02-16T04:23:09;7.22;;;2.70;;
23470;SDS011;11908;50.806;4.424;2024-02-16T04:25:35;4.78;;;2.55;;
23470;SDS011;11908;50.806;4.424;2024-02-16T04:28:00;4.57;;;2.70;;
23470;SDS011;11908;50.806;4.424;2024-02-16T04:30:26;6.10;;;2.65;;
23470;SDS011;11908;50.806;4.424;2024-02-16T04:32:52;3.65;;;2.38;;
23470;SDS011;11908;50.806;4.424;2024-02-16T04:35:18;5.15;;;2.58;;
23470;SDS011;11908;50.806;4.424;2024-02-16T04:37:44;6.53;;;2.95;;
23470;SDS011;11908;50.806;4.424;2024-02-16T04:40:10;5.80;;;2.97;;
23470;SDS011;11908;50.806;4.424;2024-02-16T04:42:37;5.20;;;2.85;;
23470;SDS011;11908;50.806;4.424;2024-02-16T04:45:05;6.68;;;3.10;;
23470;SDS011;11908;50.806;4.424;2024-02-16T04:47:31;3.75;;;2.33;;
23470;SDS011;11908;50.806;4.424;2024-02-16T04:49:57;5.88;;;2.47;;
23470;SDS011;11908;50.806;4.424;2024-02-16T04:52:22;5.78;;;2.70;;
23470;SDS011;11908;50.806;4.424;2024-02-16T04:54:48;6.88;;;2.83;;
23470;SDS011;11908;50.806;4.424;2024-02-16T04:57:13;5.72;;;2.92;;
23470;SDS011;11908;50.806;4.424;2024-02-16T04:59:39;8.05;;;3.10;;
23470;SDS011;11908;50.806;4.424;2024-02-16T05:02:05;7.20;;;2.90;;
23470;SDS011;11908;50.806;4.424;2024-02-16T05:04:32;6.80;;;2.63;;
23470;SDS011;11908;50.806;4.424;2024-02-16T05:06:57;7.45;;;2.78;;
23470;SDS011;11908;50.806;4.424;2024-02-16T05:09:23;5.55;;;2.83;;
23470;SDS011;11908;50.806;4.424;2024-02-16T05:11:51;6.75;;;2.65;;
23470;SDS011;11908;50.806;4.424;2024-02-16T05:14:17;7.72;;;3.08;;
23470;SDS011;11908;50.806;4.424;2024-02-16T05:16:45;5.28;;;2.40;;
23470;SDS011;11908;50.806;4.424;2024-02-16T05:19:12;10.30;;;3.00;;
23470;SDS011;11908;50.806;4.424;2024-02-16T05:21:38;5.43;;;2.67;;
23470;SDS011;11908;50.806;4.424;2024-02-16T05:24:03;5.95;;;2.78;;
23470;SDS011;11908;50.806;4.424;2024-02-16T05:26:29;6.97;;;2.80;;
23470;SDS011;11908;50.806;4.424;2024-02-16T05:28:55;7.93;;;3.17;;
23470;SDS011;11908;50.806;4.424;2024-02-16T05:31:21;6.88;;;2.90;;
23470;SDS011;11908;50.806;4.424;2024-02-16T05:33:50;7.82;;;3.05;;
23470;SDS011;11908;50.806;4.424;2024-02-16T05:36:19;9.50;;;2.97;;
23470;SDS011;11908;50.806;4.424;2024-02-16T05:38:49;11.35;;;3.00;;
23470;SDS011;11908;50.806;4.424;2024-02-16T05:41:18;7.95;;;2.92;;
23470;SDS011;11908;50.806;4.424;2024-02-16T05:43:44;4.60;;;2.47;;
23470;SDS011;11908;50.806;4.424;2024-02-16T05:46:16;8.05;;;2.78;;
23470;SDS011;11908;50.806;4.424;2024-02-16T05:48:42;6.72;;;2.72;;
23470;SDS011;11908;50.806;4.424;2024-02-16T05:51:09;5.95;;;2.70;;
23470;SDS011;11908;50.806;4.424;2024-02-16T05:53:37;5.78;;;2.72;;
23470;SDS011;11908;50.806;4.424;2024-02-16T05:56:03;6.47;;;2.92;;
23470;SDS011;11908;50.806;4.424;2024-02-16T05:58:30;4.20;;;2.88;;
23470;SDS011;11908;50.806;4.424;2024-02-16T06:00:55;6.53;;;3.15;;
23470;SDS011;11908;50.806;4.424;2024-02-16T06:03:22;6.85;;;2.90;;
23470;SDS011;11908;50.806;4.424;2024-02-16T06:05:48;5.32;;;2.67;;
23470;SDS011;11908;50.806;4.424;2024-02-16T06:08:14;5.20;;;2.83;;
23470;SDS011;11908;50.806;4.424;2024-02-16T06:10:44;10.30;;;3.15;;
23470;SDS011;11908;50.806;4.424;2024-02-16T06:13:16;4.95;;;2.75;;
23470;SDS011;11908;50.806;4.424;2024-02-16T06:15:42;6.60;;;3.28;;
23470;SDS011;11908;50.806;4.424;2024-02-16T06:18:08;9.57;;;3.63;;
23470;SDS011;11908;50.806;4.424;2024-02-16T06:20:34;6.32;;;3.30;;
23470;SDS011;11908;50.806;4.424;2024-02-16T06:23:00;4.72;;;3.08;;
23470;SDS011;11908;50.806;4.424;2024-02-16T06:25:26;6.57;;;3.40;;
23470;SDS011;11908;50.806;4.424;2024-02-16T06:27:52;7.88;;;3.50;;
23470;SDS011;11908;50.806;4.424;2024-02-16T06:30:18;8.50;;;3.20;;
23470;SDS011;11908;50.806;4.424;2024-02-16T06:32:43;11.35;;;3.53;;
23470;SDS011;11908;50.806;4.424;2024-02-16T06:35:09;6.03;;;3.63;;
23470;SDS011;11908;50.806;4.424;2024-02-16T06:37:36;4.95;;;3.00;;
23470;SDS011;11908;50.806;4.424;2024-02-16T06:40:05;6.93;;;3.75;;
23470;SDS011;11908;50.806;4.424;2024-02-16T06:42:34;8.40;;;3.85;;
23470;SDS011;11908;50.806;4.424;2024-02-16T06:45:00;10.07;;;3.47;;
23470;SDS011;11908;50.806;4.424;2024-02-16T06:47:25;7.07;;;3.45;;
23470;SDS011;11908;50.806;4.424;2024-02-16T06:49:51;6.75;;;3.55;;
23470;SDS011;11908;50.806;4.424;2024-02-16T06:52:17;4.90;;;3.47;;
23470;SDS011;11908;50.806;4.424;2024-02-16T06:54:43;6.43;;;3.40;;
23470;SDS011;11908;50.806;4.424;2024-02-16T06:57:09;7.95;;;3.95;;
23470;SDS011;11908;50.806;4.424;2024-02-16T06:59:35;9.23;;;3.35;;
23470;SDS011;11908;50.806;4.424;2024-02-16T07:02:00;6.97;;;3.65;;
23470;SDS011;11908;50.806;4.424;2024-02-16T07:04:26;8.25;;;3.90;;
23470;SDS011;11908;50.806;4.424;2024-02-16T07:06:52;6.55;;;3.78;;
23470;SDS011;11908;50.806;4.424;2024-02-16T07:09:17;10.13;;;3.80;;
23470;SDS011;11908;50.806;4.424;2024-02-16T07:11:43;9.30;;;3.92;;
23470;SDS011;11908;50.806;4.424;2024-02-16T07:14:11;11.35;;;3.55;;
23470;SDS011;11908;50.806;4.424;2024-02-16T07:16:37;8.77;;;4.82;;
23470;SDS011;11908;50.806;4.424;2024-02-16T07:19:03;10.70;;;4.00;;
23470;SDS011;11908;50.806;4.424;2024-02-16T07:21:30;8.35;;;3.22;;
23470;SDS011;11908;50.806;4.424;2024-02-16T07:23:55;6.35;;;3.47;;
23470;SDS011;11908;50.806;4.424;2024-02-16T07:26:22;5.65;;;3.47;;
23470;SDS011;11908;50.806;4.424;2024-02-16T07:28:48;9.48;;;4.30;;
23470;SDS011;11908;50.806;4.424;2024-02-16T07:31:13;8.05;;;3.88;;
23470;SDS011;11908;50.806;4.424;2024-02-16T07:33:39;10.40;;;4.07;;
23470;SDS011;11908;50.806;4.424;2024-02-16T07:36:05;9.48;;;3.90;;
23470;SDS011;11908;50.806;4.424;2024-02-16T07:38:31;7.72;;;3.78;;
23470;SDS011;11908;50.806;4.424;2024-02-16T07:40:57;8.88;;;3.67;;
23470;SDS011;11908;50.806;4.424;2024-02-16T07:43:23;8.63;;;3.90;;
23470;SDS011;11908;50.806;4.424;2024-02-16T07:45:49;9.02;;;4.00;;
23470;SDS011;11908;50.806;4.424;2024-02-16T07:48:15;8.65;;;4.10;;
23470;SDS011;11908;50.806;4.424;2024-02-16T07:50:41;9.98;;;4.28;;
23470;SDS011;11908;50.806;4.424;2024-02-16T07:53:06;9.13;;;4.07;;
23470;SDS011;11908;50.806;4.424;2024-02-16T07:55:34;7.63;;;3.88;;
23470;SDS011;11908;50.806;4.424;2024-02-16T07:58:00;5.82;;;3.13;;
23470;SDS011;11908;50.806;4.424;2024-02-16T08:00:26;10.13;;;3.58;;
23470;SDS011;11908;50.806;4.424;2024-02-16T08:02:53;9.50;;;3.70;;
23470;SDS011;11908;50.806;4.424;2024-02-16T08:05:18;7.22;;;4.00;;
23470;SDS011;11908;50.806;4.424;2024-02-16T08:07:44;6.50;;;3.38;;
23470;SDS011;11908;50.806;4.424;2024-02-16T08:10:12;9.75;;;4.25;;
23470;SDS011;11908;50.806;4.424;2024-02-16T08:12:38;6.68;;;3.80;;
23470;SDS011;11908;50.806;4.424;2024-02-16T08:15:04;10.57;;;4.13;;
23470;SDS011;11908;50.806;4.424;2024-02-16T08:17:33;6.65;;;3.47;;
23470;SDS011;11908;50.806;4.424;2024-02-16T08:20:00;9.73;;;3.40;;
23470;SDS011;11908;50.806;4.424;2024-02-16T08:22:25;10.10;;;3.88;;
23470;SDS011;11908;50.806;4.424;2024-02-16T08:24:51;8.77;;;4.05;;
23470;SDS011;11908;50.806;4.424;2024-02-16T08:27:17;11.60;;;4.00;;
23470;SDS011;11908;50.806;4.424;2024-02-16T08:29:43;7.70;;;4.25;;
23470;SDS011;11908;50.806;4.424;2024-02-16T08:32:09;8.80;;;4.35;;
23470;SDS011;11908;50.806;4.424;2024-02-16T08:34:35;9.77;;;4.78;;
23470;SDS011;11908;50.806;4.424;2024-02-16T08:37:02;8.18;;;4.38;;
23470;SDS011;11908;50.806;4.424;2024-02-16T08:39:29;11.00;;;4.50;;
23470;SDS011;11908;50.806;4.424;2024-02-16T08:41:55;14.23;;;5.28;;
23470;SDS011;11908;50.806;4.424;2024-02-16T08:44:21;12.15;;;4.72;;
23470;SDS011;11908;50.806;4.424;2024-02-16T08:46:47;11.57;;;4.65;;
23470;SDS011;11908;50.806;4.424;2024-02-16T08:49:14;11.48;;;4.63;;
23470;SDS011;11908;50.806;4.424;2024-02-16T08:51:40;10.50;;;5.15;;
23470;SDS011;11908;50.806;4.424;2024-02-16T08:54:06;12.77;;;4.35;;
23470;SDS011;11908;50.806;4.424;2024-02-16T08:56:32;13.60;;;5.40;;
23470;SDS011;11908;50.806;4.424;2024-02-16T08:59:00;9.43;;;4.95;;
23470;SDS011;11908;50.806;4.424;2024-02-16T09:01:33;7.85;;;4.43;;
23470;SDS011;11908;50.806;4.424;2024-02-16T09:03:59;11.63;;;5.07;;
23470;SDS011;11908;50.806;4.424;2024-02-16T09:06:25;13.70;;;4.85;;
23470;SDS011;11908;50.806;4.424;2024-02-16T09:08:52;10.57;;;4.75;;
23470;SDS011;11908;50.806;4.424;2024-02-16T09:11:17;14.23;;;5.45;;
23470;SDS011;11908;50.806;4.424;2024-02-16T09:13:43;10.52;;;5.13;;
23470;SDS011;11908;50.806;4.424;2024-02-16T09:16:09;11.52;;;5.30;;
23470;SDS011;11908;50.806;4.424;2024-02-16T09:18:35;15.25;;;7.43;;
23470;SDS011;11908;50.806;4.424;2024-02-16T09:21:02;10.32;;;6.07;;
23470;SDS011;11908;50.806;4.424;2024-02-16T09:23:28;12.45;;;5.82;;
23470;SDS011;11908;50.806;4.424;2024-02-16T09:25:54;10.60;;;6.57;;
23470;SDS011;11908;50.806;4.424;2024-02-16T09:28:20;11.48;;;6.20;;
23470;SDS011;11908;50.806;4.424;2024-02-16T09:30:46;15.85;;;5.93;;
23470;SDS011;11908;50.806;4.424;2024-02-16T09:33:12;15.35;;;6.28;;
23470;SDS011;11908;50.806;4.424;2024-02-16T09:35:39;12.52;;;5.50;;
23470;SDS011;11908;50.806;4.424;2024-02-16T09:38:04;14.23;;;6.18;;
23470;SDS011;11908;50.806;4.424;2024-02-16T09:40:31;14.52;;;5.85;;
23470;SDS011;11908;50.806;4.424;2024-02-16T09:42:56;19.42;;;6.20;;
23470;SDS011;11908;50.806;4.424;2024-02-16T09:45:23;13.32;;;5.68;;
23470;SDS011;11908;50.806;4.424;2024-02-16T09:47:50;15.07;;;6.25;;
23470;SDS011;11908;50.806;4.424;2024-02-16T09:50:19;11.77;;;5.55;;
23470;SDS011;11908;50.806;4.424;2024-02-16T09:52:49;12.85;;;5.43;;
23470;SDS011;11908;50.806;4.424;2024-02-16T09:55:16;15.45;;;6.13;;
23470;SDS011;11908;50.806;4.424;2024-02-16T09:57:42;13.93;;;5.35;;
23470;SDS011;11908;50.806;4.424;2024-02-16T10:00:09;18.35;;;6.85;;
23470;SDS011;11908;50.806;4.424;2024-02-16T10:02:45;16.02;;;6.60;;
23470;SDS011;11908;50.806;4.424;2024-02-16T10:05:12;14.43;;;6.28;;
23470;SDS011;11908;50.806;4.424;2024-02-16T10:07:47;12.98;;;6.50;;
23470;SDS011;11908;50.806;4.424;2024-02-16T10:10:22;14.75;;;6.65;;
23470;SDS011;11908;50.806;4.424;2024-02-16T10:12:48;16.17;;;6.47;;
23470;SDS011;11908;50.806;4.424;2024-02-16T10:15:20;10.85;;;5.10;;
23470;SDS011;11908;50.806;4.424;2024-02-16T10:20:44;15.18;;;5.80;;
23470;SDS011;11908;50.806;4.424;2024-02-16T10:23:11;17.70;;;6.47;;
23470;SDS011;11908;50.806;4.424;2024-02-16T10:25:38;12.18;;;6.05;;
23470;SDS011;11908;50.806;4.424;2024-02-16T10:28:09;17.25;;;6.10;;
23470;SDS011;11908;50.806;4.424;2024-02-16T10:30:38;17.40;;;5.90;;
23470;SDS011;11908;50.806;4.424;2024-02-16T10:33:08;16.35;;;5.30;;
23470;SDS011;11908;50.806;4.424;2024-02-16T10:35:35;11.13;;;5.65;;
23470;SDS011;11908;50.806;4.424;2024-02-16T10:38:05;12.13;;;5.53;;
23470;SDS011;11908;50.806;4.424;2024-02-16T10:43:04;17.25;;;6.03;;
23470;SDS011;11908;50.806;4.424;2024-02-16T10:45:39;17.42;;;6.53;;
23470;SDS011;11908;50.806;4.424;2024-02-16T10:48:05;15.33;;;6.77;;
23470;SDS011;11908;50.806;4.424;2024-02-16T10:50:33;14.52;;;6.38;;
23470;SDS011;11908;50.806;4.424;2024-02-16T10:53:02;18.75;;;7.30;;
23470;SDS011;11908;50.806;4.424;2024-02-16T10:55:34;16.30;;;6.85;;
23470;SDS011;11908;50.806;4.424;2024-02-16T10:58:00;18.00;;;7.50;;
23470;SDS011;11908;50.806;4.424;2024-02-16T11:00:26;21.38;;;7.47;;
23470;SDS011;11908;50.806;4.424;2024-02-16T11:02:55;15.82;;;7.30;;
23470;SDS011;11908;50.806;4.424;2024-02-16T11:05:36;16.80;;;7.85;;
23470;SDS011;11908;50.806;4.424;2024-02-16T11:08:13;12.85;;;6.80;;
23470;SDS011;11908;50.806;4.424;2024-02-16T11:10:40;17.65;;;7.75;;
23470;SDS011;11908;50.806;4.424;2024-02-16T11:13:06;15.85;;;7.70;;
23470;SDS011;11908;50.806;4.424;2024-02-16T11:15:33;18.60;;;8.52;;
23470;SDS011;11908;50.806;4.424;2024-02-16T11:18:01;19.77;;;8.05;;
23470;SDS011;11908;50.806;4.424;2024-02-16T11:20:28;18.30;;;8.00;;
23470;SDS011;11908;50.806;4.424;2024-02-16T11:23:04;19.98;;;8.68;;
23470;SDS011;11908;50.806;4.424;2024-02-16T11:25:36;20.17;;;9.40;;
23470;SDS011;11908;50.806;4.424;2024-02-16T11:28:03;21.55;;;8.20;;
23470;SDS011;11908;50.806;4.424;2024-02-16T11:30:32;15.80;;;8.27;;
23470;SDS011;11908;50.806;4.424;2024-02-16T11:32:59;21.50;;;9.35;;
23470;SDS011;11908;50.806;4.424;2024-02-16T11:35:25;18.15;;;9.50;;
23470;SDS011;11908;50.806;4.424;2024-02-16T11:37:50;17.40;;;9.63;;
23470;SDS011;11908;50.806;4.424;2024-02-16T11:40:16;19.92;;;9.57;;
23470;SDS011;11908;50.806;4.424;2024-02-16T11:42:42;20.40;;;8.32;;
23470;SDS011;11908;50.806;4.424;2024-02-16T11:45:11;18.67;;;8.73;;
23470;SDS011;11908;50.806;4.424;2024-02-16T11:47:37;18.77;;;8.68;;
23470;SDS011;11908;50.806;4.424;2024-02-16T11:50:07;16.35;;;9.30;;
23470;SDS011;11908;50.806;4.424;2024-02-16T11:52:40;20.13;;;9.63;;
23470;SDS011;11908;50.806;4.424;2024-02-16T11:55:09;18.63;;;9.60;;
23470;SDS011;11908;50.806;4.424;2024-02-16T11:57:36;19.70;;;9.38;;
23470;SDS011;11908;50.806;4.424;2024-02-16T12:00:03;15.13;;;9.02;;
23470;SDS011;11908;50.806;4.424;2024-02-16T12:02:34;18.65;;;8.80;;
23470;SDS011;11908;50.806;4.424;2024-02-16T12:05:01;13.98;;;7.88;;
23470;SDS011;11908;50.806;4.424;2024-02-16T12:07:27;17.67;;;7.80;;
23470;SDS011;11908;50.806;4.424;2024-02-16T12:09:57;15.13;;;8.15;;
23470;SDS011;11908;50.806;4.424;2024-02-16T12:12:24;12.57;;;7.75;;
23470;SDS011;11908;50.806;4.424;2024-02-16T12:14:50;12.35;;;8.23;;
23470;SDS011;11908;50.806;4.424;2024-02-16T12:17:16;10.57;;;7.28;;
23470;SDS011;11908;50.806;4.424;2024-02-16T12:19:45;12.95;;;7.30;;
23470;SDS011;11908;50.806;4.424;2024-02-16T12:22:15;14.35;;;6.95;;
23470;SDS011;11908;50.806;4.424;2024-02-16T12:24:45;9.02;;;6.13;;
23470;SDS011;11908;50.806;4.424;2024-02-16T12:27:12;10.77;;;5.90;;
23470;SDS011;11908;50.806;4.424;2024-02-16T12:29:40;9.23;;;5.35;;
23470;SDS011;11908;50.806;4.424;2024-02-16T12:32:06;9.45;;;5.47;;
23470;SDS011;11908;50.806;4.424;2024-02-16T12:34:34;5.97;;;4.65;;
23470;SDS011;11908;50.806;4.424;2024-02-16T12:37:03;5.75;;;4.82;;
23470;SDS011;11908;50.806;4.424;2024-02-16T12:39:33;6.20;;;4.43;;
23470;SDS011;11908;50.806;4.424;2024-02-16T12:42:01;7.43;;;4.25;;
23470;SDS011;11908;50.806;4.424;2024-02-16T12:44:27;7.00;;;4.80;;
23470;SDS011;11908;50.806;4.424;2024-02-16T12:46:53;7.20;;;4.88;;
23470;SDS011;11908;50.806;4.424;2024-02-16T12:49:19;6.97;;;5.00;;
23470;SDS011;11908;50.806;4.424;2024-02-16T12:51:47;5.70;;;5.13;;
23470;SDS011;11908;50.806;4.424;2024-02-16T12:54:16;9.95;;;5.70;;
23470;SDS011;11908;50.806;4.424;2024-02-16T12:56:44;5.78;;;4.88;;
23470;SDS011;11908;50.806;4.424;2024-02-16T12:59:10;7.30;;;5.15;;
23470;SDS011;11908;50.806;4.424;2024-02-16T13:01:36;6.13;;;5.50;;
23470;SDS011;11908;50.806;4.424;2024-02-16T13:04:02;5.28;;;4.78;;
23470;SDS011;11908;50.806;4.424;2024-02-16T13:06:27;8.00;;;5.97;;
23470;SDS011;11908;50.806;4.424;2024-02-16T13:08:53;9.07;;;6.32;;
23470;SDS011;11908;50.806;4.424;2024-02-16T13:11:19;8.65;;;6.30;;
23470;SDS011;11908;50.806;4.424;2024-02-16T13:13:45;9.40;;;7.10;;
23470;SDS011;11908;50.806;4.424;2024-02-16T13:16:10;9.60;;;7.07;;
23470;SDS011;11908;50.806;4.424;2024-02-16T13:18:36;8.57;;;6.30;;
23470;SDS011;11908;50.806;4.424;2024-02-16T13:21:02;7.53;;;6.53;;
23470;SDS011;11908;50.806;4.424;2024-02-16T13:23:28;10.98;;;6.80;;
23470;SDS011;11908;50.806;4.424;2024-02-16T13:25:56;9.50;;;6.43;;
23470;SDS011;11908;50.806;4.424;2024-02-16T13:28:21;9.25;;;6.65;;
23470;SDS011;11908;50.806;4.424;2024-02-16T13:30:47;8.45;;;6.82;;
23470;SDS011;11908;50.806;4.424;2024-02-16T13:33:13;8.23;;;7.03;;
23470;SDS011;11908;50.806;4.424;2024-02-16T13:35:38;7.63;;;6.32;;
23470;SDS011;11908;50.806;4.424;2024-02-16T13:38:04;8.90;;;7.35;;
23470;SDS011;11908;50.806;4.424;2024-02-16T13:40:30;8.13;;;6.97;;
23470;SDS011;11908;50.806;4.424;2024-02-16T13:42:58;9.27;;;6.65;;
23470;SDS011;11908;50.806;4.424;2024-02-16T13:45:32;7.97;;;7.18;;
23470;SDS011;11908;50.806;4.424;2024-02-16T13:48:15;7.47;;;6.13;;
23470;SDS011;11908;50.806;4.424;2024-02-16T13:50:43;8.55;;;5.88;;
23470;SDS011;11908;50.806;4.424;2024-02-16T13:53:10;8.40;;;6.43;;
23470;SDS011;11908;50.806;4.424;2024-02-16T13:55:36;6.82;;;5.63;;
23470;SDS011;11908;50.806;4.424;2024-02-16T13:58:01;12.65;;;6.00;;
23470;SDS011;11908;50.806;4.424;2024-02-16T14:00:27;7.03;;;6.05;;
23470;SDS011;11908;50.806;4.424;2024-02-16T14:02:53;9.90;;;5.70;;
23470;SDS011;11908;50.806;4.424;2024-02-16T14:05:18;7.72;;;5.30;;
23470;SDS011;11908;50.806;4.424;2024-02-16T14:07:44;5.78;;;4.78;;
23470;SDS011;11908;50.806;4.424;2024-02-16T14:10:10;6.22;;;4.88;;
23470;SDS011;11908;50.806;4.424;2024-02-16T14:12:36;6.97;;;5.07;;
23470;SDS011;11908;50.806;4.424;2024-02-16T14:15:02;11.88;;;5.70;;
23470;SDS011;11908;50.806;4.424;2024-02-16T14:17:28;6.82;;;5.55;;
23470;SDS011;11908;50.806;4.424;2024-02-16T14:19:53;6.35;;;5.05;;
23470;SDS011;11908;50.806;4.424;2024-02-16T14:22:19;5.78;;;4.53;;
23470;SDS011;11908;50.806;4.424;2024-02-16T14:24:45;9.57;;;4.50;;
23470;SDS011;11908;50.806;4.424;2024-02-16T14:27:10;5.25;;;4.30;;
23470;SDS011;11908;50.806;4.424;2024-02-16T14:29:36;4.97;;;4.40;;
23470;SDS011;11908;50.806;4.424;2024-02-16T14:32:01;6.22;;;4.20;;
23470;SDS011;11908;50.806;4.424;2024-02-16T14:34:28;4.13;;;3.65;;
23470;SDS011;11908;50.806;4.424;2024-02-16T14:36:53;6.30;;;3.47;;
23470;SDS011;11908;50.806;4.424;2024-02-16T14:39:19;5.63;;;3.60;;
23470;SDS011;11908;50.806;4.424;2024-02-16T14:41:45;4.70;;;3.55;;
23470;SDS011;11908;50.806;4.424;2024-02-16T14:44:11;4.63;;;3.28;;